sensor_id;sensor_type;location;lat;lon;timestamp;pressure;altitude;pressure_sealevel;temperature;humidity
46506;BME280;32220;49.808;9.968;2023-05-23T00:01:06;98507.84;;;19.86;63.49
46506;BME280;32220;49.808;9.968;2023-05-23T00:03:34;98514.06;;;19.86;63.18
46506;BME280;32220;49.808;9.968;2023-05-23T00:06:05;98507.16;;;19.84;62.72
46506;BME280;32220;49.808;9.968;2023-05-23T00:08:32;98509.84;;;19.84;63.17
46506;BME280;32220;49.808;9.968;2023-05-23T00:11:01;98502.78;;;19.83;64.79
46506;BME280;32220;49.808;9.968;2023-05-23T00:13:29;98508.16;;;19.83;64.11
46506;BME280;32220;49.808;9.968;2023-05-23T00:15:58;98519.75;;;19.83;64.02
46506;BME280;32220;49.808;9.968;2023-05-23T00:18:25;98519.91;;;19.82;63.91
46506;BME280;32220;49.808;9.968;2023-05-23T00:20:53;98516.53;;;19.80;64.26
46506;BME280;32220;49.808;9.968;2023-05-23T00:23:22;98518.72;;;19.76;64.69
46506;BME280;32220;49.808;9.968;2023-05-23T00:25:53;98506.59;;;19.64;64.47
46506;BME280;32220;49.808;9.968;2023-05-23T00:28:23;98505.69;;;19.55;64.71
46506;BME280;32220;49.808;9.968;2023-05-23T00:30:51;98478.75;;;19.39;64.76
46506;BME280;32220;49.808;9.968;2023-05-23T00:33:18;98530.59;;;19.65;65.30
46506;BME280;32220;49.808;9.968;2023-05-23T00:35:47;98531.91;;;19.61;65.98
46506;BME280;32220;49.808;9.968;2023-05-23T00:38:15;98535.75;;;19.59;66.14
46506;BME280;32220;49.808;9.968;2023-05-23T00:40:43;98534.22;;;19.56;66.50
46506;BME280;32220;49.808;9.968;2023-05-23T00:43:10;98541.59;;;19.54;66.66
46506;BME280;32220;49.808;9.968;2023-05-23T00:45:40;98516.00;;;19.42;66.75
46506;BME280;32220;49.808;9.968;2023-05-23T00:48:08;98534.31;;;19.47;66.46
46506;BME280;32220;49.808;9.968;2023-05-23T00:50:37;98533.63;;;19.45;66.44
46506;BME280;32220;49.808;9.968;2023-05-23T00:53:04;98540.16;;;19.42;66.65
46506;BME280;32220;49.808;9.968;2023-05-23T00:55:32;98514.38;;;19.23;66.02
46506;BME280;32220;49.808;9.968;2023-05-23T00:58:00;98532.59;;;19.37;66.25
46506;BME280;32220;49.808;9.968;2023-05-23T01:00:28;98530.06;;;19.36;66.23
46506;BME280;32220;49.808;9.968;2023-05-23T01:02:58;98532.75;;;19.36;66.20
46506;BME280;32220;49.808;9.968;2023-05-23T01:05:26;98530.22;;;19.34;66.41
46506;BME280;32220;49.808;9.968;2023-05-23T01:07:54;98536.44;;;19.35;66.67
46506;BME280;32220;49.808;9.968;2023-05-23T01:10:23;98524.66;;;19.28;66.59
46506;BME280;32220;49.808;9.968;2023-05-23T01:13:03;98539.28;;;19.33;67.11
46506;BME280;32220;49.808;9.968;2023-05-23T01:15:39;98539.44;;;19.32;67.04
46506;BME280;32220;49.808;9.968;2023-05-23T01:18:10;98537.75;;;19.31;67.25
46506;BME280;32220;49.808;9.968;2023-05-23T01:20:45;98544.13;;;19.30;67.57
46506;BME280;32220;49.808;9.968;2023-05-23T01:26:32;98514.13;;;19.09;68.26
46506;BME280;32220;49.808;9.968;2023-05-23T01:29:06;98548.97;;;19.26;68.15
46506;BME280;32220;49.808;9.968;2023-05-23T01:31:36;98553.50;;;19.26;68.30
46506;BME280;32220;49.808;9.968;2023-05-23T01:34:06;98536.97;;;19.13;68.52
46506;BME280;32220;49.808;9.968;2023-05-23T01:36:38;98549.13;;;19.25;69.30
46506;BME280;32220;49.808;9.968;2023-05-23T01:39:06;98550.13;;;19.24;69.09
46506;BME280;32220;49.808;9.968;2023-05-23T01:41:34;98551.81;;;19.25;68.97
46506;BME280;32220;49.808;9.968;2023-05-23T01:44:03;98557.19;;;19.25;69.06
46506;BME280;32220;49.808;9.968;2023-05-23T01:46:32;98559.56;;;19.28;69.30
46506;BME280;32220;49.808;9.968;2023-05-23T01:49:02;98543.69;;;19.17;69.19
46506;BME280;32220;49.808;9.968;2023-05-23T01:51:32;98567.63;;;19.28;68.88
46506;BME280;32220;49.808;9.968;2023-05-23T01:54:01;98570.31;;;19.28;68.39
46506;BME280;32220;49.808;9.968;2023-05-23T01:56:29;98576.34;;;19.30;68.80
46506;BME280;32220;49.808;9.968;2023-05-23T01:58:57;98571.66;;;19.32;68.70
46506;BME280;32220;49.808;9.968;2023-05-23T02:01:26;98576.03;;;19.33;68.44
46506;BME280;32220;49.808;9.968;2023-05-23T02:03:54;98514.78;;;19.02;68.66
46506;BME280;32220;49.808;9.968;2023-05-23T02:06:22;98515.91;;;19.00;68.35
46506;BME280;32220;49.808;9.968;2023-05-23T02:08:50;98556.34;;;19.24;68.28
46506;BME280;32220;49.808;9.968;2023-05-23T02:11:17;98573.34;;;19.33;68.82
46506;BME280;32220;49.808;9.968;2023-05-23T02:13:45;98572.50;;;19.32;68.39
46506;BME280;32220;49.808;9.968;2023-05-23T02:16:13;98560.88;;;19.24;68.80
46506;BME280;32220;49.808;9.968;2023-05-23T02:18:42;98575.28;;;19.23;69.96
46506;BME280;32220;49.808;9.968;2023-05-23T02:21:12;98580.97;;;19.20;70.30
46506;BME280;32220;49.808;9.968;2023-05-23T02:23:39;98559.06;;;19.07;70.94
46506;BME280;32220;49.808;9.968;2023-05-23T02:26:08;98564.28;;;19.08;70.74
46506;BME280;32220;49.808;9.968;2023-05-23T02:28:35;98534.13;;;18.88;70.96
46506;BME280;32220;49.808;9.968;2023-05-23T02:31:03;98584.66;;;19.19;71.09
46506;BME280;32220;49.808;9.968;2023-05-23T02:33:31;98586.34;;;19.20;71.23
46506;BME280;32220;49.808;9.968;2023-05-23T02:36:00;98590.88;;;19.19;70.78
46506;BME280;32220;49.808;9.968;2023-05-23T02:38:29;98595.78;;;19.24;70.45
46506;BME280;32220;49.808;9.968;2023-05-23T02:40:57;98599.31;;;19.24;70.17
46506;BME280;32220;49.808;9.968;2023-05-23T02:43:26;98594.09;;;19.23;70.77
46506;BME280;32220;49.808;9.968;2023-05-23T02:45:54;98595.09;;;19.22;70.46
46506;BME280;32220;49.808;9.968;2023-05-23T02:48:22;98594.09;;;19.23;70.95
46506;BME280;32220;49.808;9.968;2023-05-23T02:50:50;98595.09;;;19.22;71.09
46506;BME280;32220;49.808;9.968;2023-05-23T02:53:19;98600.59;;;19.20;70.88
46506;BME280;32220;49.808;9.968;2023-05-23T02:55:48;98601.44;;;19.21;70.83
46506;BME280;32220;49.808;9.968;2023-05-23T02:58:15;98606.13;;;19.19;71.04
46506;BME280;32220;49.808;9.968;2023-05-23T03:00:44;98608.13;;;19.17;71.13
46506;BME280;32220;49.808;9.968;2023-05-23T03:03:11;98601.41;;;19.13;71.52
46506;BME280;32220;49.808;9.968;2023-05-23T03:05:39;98594.66;;;19.09;71.23
46506;BME280;32220;49.808;9.968;2023-05-23T03:08:07;98598.31;;;19.08;71.67
46506;BME280;32220;49.808;9.968;2023-05-23T03:10:36;98598.13;;;19.01;71.77
46506;BME280;32220;49.808;9.968;2023-05-23T03:13:04;98598.97;;;19.01;71.98
46506;BME280;32220;49.808;9.968;2023-05-23T03:15:32;98597.59;;;18.97;71.39
46506;BME280;32220;49.808;9.968;2023-05-23T03:18:00;98595.84;;;18.88;71.68
46506;BME280;32220;49.808;9.968;2023-05-23T03:20:28;98614.63;;;18.88;71.69
46506;BME280;32220;49.808;9.968;2023-05-23T03:22:56;98599.41;;;18.79;72.41
46506;BME280;32220;49.808;9.968;2023-05-23T03:25:23;98616.06;;;18.83;72.04
46506;BME280;32220;49.808;9.968;2023-05-23T03:27:52;98613.53;;;18.81;72.40
46506;BME280;32220;49.808;9.968;2023-05-23T03:30:21;98618.19;;;18.79;72.86
46506;BME280;32220;49.808;9.968;2023-05-23T03:32:49;98620.88;;;18.79;72.27
46506;BME280;32220;49.808;9.968;2023-05-23T03:35:16;98616.69;;;18.77;72.41
46506;BME280;32220;49.808;9.968;2023-05-23T03:37:44;98612.06;;;18.69;72.39
46506;BME280;32220;49.808;9.968;2023-05-23T03:40:12;98632.25;;;18.73;72.90
46506;BME280;32220;49.808;9.968;2023-05-23T03:42:39;98629.16;;;18.68;73.09
46506;BME280;32220;49.808;9.968;2023-05-23T03:45:10;98637.69;;;18.63;72.86
46506;BME280;32220;49.808;9.968;2023-05-23T03:47:38;98641.66;;;18.59;73.51
46506;BME280;32220;49.808;9.968;2023-05-23T03:50:07;98642.91;;;18.55;73.77
46506;BME280;32220;49.808;9.968;2023-05-23T03:52:36;98650.44;;;18.52;73.87
46506;BME280;32220;49.808;9.968;2023-05-23T03:55:04;98634.94;;;18.46;74.20
46506;BME280;32220;49.808;9.968;2023-05-23T03:57:34;98647.06;;;18.50;74.46
46506;BME280;32220;49.808;9.968;2023-05-23T04:00:03;98650.44;;;18.52;74.09
46506;BME280;32220;49.808;9.968;2023-05-23T04:02:45;98642.75;;;18.57;73.79
46506;BME280;32220;49.808;9.968;2023-05-23T04:05:17;98648.72;;;18.60;74.27
46506;BME280;32220;49.808;9.968;2023-05-23T04:07:45;98647.56;;;18.63;74.12
46506;BME280;32220;49.808;9.968;2023-05-23T04:10:14;98649.63;;;18.69;73.30
46506;BME280;32220;49.808;9.968;2023-05-23T04:12:42;98633.16;;;18.64;72.93
46506;BME280;32220;49.808;9.968;2023-05-23T04:15:13;98658.16;;;18.82;72.64
46506;BME280;32220;49.808;9.968;2023-05-23T04:17:53;98653.03;;;18.89;72.62
46506;BME280;32220;49.808;9.968;2023-05-23T04:20:22;98650.41;;;18.97;72.78
46506;BME280;32220;49.808;9.968;2023-05-23T04:22:50;98655.00;;;19.05;72.90
46506;BME280;32220;49.808;9.968;2023-05-23T04:25:17;98653.69;;;19.09;72.75
46506;BME280;32220;49.808;9.968;2023-05-23T04:27:56;98636.53;;;19.01;72.84
46506;BME280;32220;49.808;9.968;2023-05-23T04:30:24;98649.88;;;19.11;72.71
46506;BME280;32220;49.808;9.968;2023-05-23T04:32:54;98642.59;;;19.04;72.17
46506;BME280;32220;49.808;9.968;2023-05-23T04:35:23;98638.59;;;19.08;72.25
46506;BME280;32220;49.808;9.968;2023-05-23T04:37:51;98644.66;;;19.10;72.12
46506;BME280;32220;49.808;9.968;2023-05-23T04:40:21;98661.81;;;19.17;71.81
46506;BME280;32220;49.808;9.968;2023-05-23T04:43:14;98658.13;;;19.18;71.93
46506;BME280;32220;49.808;9.968;2023-05-23T04:45:48;98668.56;;;19.21;71.83
46506;BME280;32220;49.808;9.968;2023-05-23T04:48:38;98660.66;;;19.19;71.65
46506;BME280;32220;49.808;9.968;2023-05-23T04:51:07;98672.69;;;19.33;71.78
46506;BME280;32220;49.808;9.968;2023-05-23T04:54:00;98666.38;;;19.42;71.44
46506;BME280;32220;49.808;9.968;2023-05-23T04:56:28;98673.22;;;19.54;71.55
46506;BME280;32220;49.808;9.968;2023-05-23T04:58:56;98676.34;;;19.67;71.06
46506;BME280;32220;49.808;9.968;2023-05-23T05:01:26;98668.66;;;19.72;71.05
46506;BME280;32220;49.808;9.968;2023-05-23T05:03:56;98660.59;;;19.72;71.20
46506;BME280;32220;49.808;9.968;2023-05-23T05:06:24;98680.00;;;19.84;70.87
46506;BME280;32220;49.808;9.968;2023-05-23T05:08:52;98663.72;;;19.86;70.69
46506;BME280;32220;49.808;9.968;2023-05-23T05:11:20;98684.63;;;20.00;70.31
46506;BME280;32220;49.808;9.968;2023-05-23T05:13:48;98679.94;;;20.02;70.37
46506;BME280;32220;49.808;9.968;2023-05-23T05:16:16;98675.72;;;19.99;70.30
46506;BME280;32220;49.808;9.968;2023-05-23T05:18:44;98691.13;;;20.23;69.88
46506;BME280;32220;49.808;9.968;2023-05-23T05:21:13;98691.91;;;20.41;69.52
46506;BME280;32220;49.808;9.968;2023-05-23T05:23:42;98698.00;;;20.52;69.24
46506;BME280;32220;49.808;9.968;2023-05-23T05:26:10;98700.41;;;20.63;68.92
46506;BME280;32220;49.808;9.968;2023-05-23T05:28:37;98697.56;;;20.72;68.40
46506;BME280;32220;49.808;9.968;2023-05-23T05:31:06;98700.09;;;20.82;68.45
46506;BME280;32220;49.808;9.968;2023-05-23T05:33:36;98699.13;;;20.91;67.44
46506;BME280;32220;49.808;9.968;2023-05-23T05:36:09;98697.78;;;20.87;67.31
46506;BME280;32220;49.808;9.968;2023-05-23T05:38:38;98707.88;;;20.93;67.35
46506;BME280;32220;49.808;9.968;2023-05-23T05:41:06;98710.94;;;21.06;66.78
46506;BME280;32220;49.808;9.968;2023-05-23T05:43:36;98710.78;;;21.16;66.27
46506;BME280;32220;49.808;9.968;2023-05-23T05:46:04;98722.78;;;21.38;65.59
46506;BME280;32220;49.808;9.968;2023-05-23T05:48:32;98716.06;;;21.58;64.55
46506;BME280;32220;49.808;9.968;2023-05-23T05:51:04;98723.13;;;21.75;63.71
46506;BME280;32220;49.808;9.968;2023-05-23T05:53:33;98722.75;;;21.78;63.35
46506;BME280;32220;49.808;9.968;2023-05-23T05:56:03;98724.28;;;21.81;63.50
46506;BME280;32220;49.808;9.968;2023-05-23T05:58:32;98735.59;;;21.84;62.12
46506;BME280;32220;49.808;9.968;2023-05-23T06:01:02;98729.16;;;21.77;62.11
46506;BME280;32220;49.808;9.968;2023-05-23T06:03:30;98741.66;;;21.86;61.83
46506;BME280;32220;49.808;9.968;2023-05-23T06:05:58;98750.59;;;21.87;61.28
46506;BME280;32220;49.808;9.968;2023-05-23T06:08:26;98749.75;;;21.86;60.95
46506;BME280;32220;49.808;9.968;2023-05-23T06:10:54;98747.03;;;21.95;61.49
46506;BME280;32220;49.808;9.968;2023-05-23T06:13:26;98743.00;;;21.99;61.04
46506;BME280;32220;49.808;9.968;2023-05-23T06:15:53;98759.16;;;22.15;61.15
46506;BME280;32220;49.808;9.968;2023-05-23T06:18:23;98769.94;;;22.15;60.36
46506;BME280;32220;49.808;9.968;2023-05-23T06:20:51;98772.50;;;22.08;59.21
46506;BME280;32220;49.808;9.968;2023-05-23T06:23:20;98774.00;;;22.03;58.93
46506;BME280;32220;49.808;9.968;2023-05-23T06:25:48;98773.00;;;22.12;59.16
46506;BME280;32220;49.808;9.968;2023-05-23T06:28:16;98784.09;;;22.17;58.34
46506;BME280;32220;49.808;9.968;2023-05-23T06:30:47;98766.41;;;22.23;58.41
46506;BME280;32220;49.808;9.968;2023-05-23T06:33:15;98787.44;;;22.35;58.10
46506;BME280;32220;49.808;9.968;2023-05-23T06:35:42;98785.75;;;22.42;57.93
46506;BME280;32220;49.808;9.968;2023-05-23T06:38:10;98792.47;;;22.46;57.77
46506;BME280;32220;49.808;9.968;2023-05-23T06:40:39;98796.53;;;22.42;57.38
46506;BME280;32220;49.808;9.968;2023-05-23T06:43:08;98806.66;;;22.40;56.82
46506;BME280;32220;49.808;9.968;2023-05-23T06:45:52;98803.00;;;22.25;56.72
46506;BME280;32220;49.808;9.968;2023-05-23T06:48:20;98785.97;;;22.08;56.72
46506;BME280;32220;49.808;9.968;2023-05-23T06:50:48;98801.63;;;22.21;57.40
46506;BME280;32220;49.808;9.968;2023-05-23T06:53:17;98810.09;;;22.10;56.51
46506;BME280;32220;49.808;9.968;2023-05-23T06:55:45;98826.94;;;22.12;56.45
46506;BME280;32220;49.808;9.968;2023-05-23T06:58:16;98829.63;;;22.04;55.96
46506;BME280;32220;49.808;9.968;2023-05-23T07:00:44;98836.38;;;22.08;55.66
46506;BME280;32220;49.808;9.968;2023-05-23T07:03:19;98840.44;;;22.12;55.16
46506;BME280;32220;49.808;9.968;2023-05-23T07:05:46;98840.41;;;22.20;55.41
46506;BME280;32220;49.808;9.968;2023-05-23T07:08:16;98847.81;;;22.26;54.92
46506;BME280;32220;49.808;9.968;2023-05-23T07:10:55;98849.50;;;22.27;54.97
46506;BME280;32220;49.808;9.968;2023-05-23T07:13:44;98837.38;;;22.15;54.18
46506;BME280;32220;49.808;9.968;2023-05-23T07:16:20;98856.94;;;22.09;53.48
46506;BME280;32220;49.808;9.968;2023-05-23T07:19:03;98848.19;;;21.99;53.16
46506;BME280;32220;49.808;9.968;2023-05-23T07:21:34;98852.88;;;21.97;52.63
46506;BME280;32220;49.808;9.968;2023-05-23T07:24:02;98868.59;;;22.09;52.83
46506;BME280;32220;49.808;9.968;2023-05-23T07:26:30;98857.78;;;22.09;52.35
46506;BME280;32220;49.808;9.968;2023-05-23T07:28:59;98864.50;;;22.13;52.63
46506;BME280;32220;49.808;9.968;2023-05-23T07:31:26;98851.88;;;22.06;52.38
46506;BME280;32220;49.808;9.968;2023-05-23T07:33:57;98874.13;;;22.16;52.65
46506;BME280;32220;49.808;9.968;2023-05-23T07:36:33;98875.81;;;22.17;52.46
46506;BME280;32220;49.808;9.968;2023-05-23T07:39:03;98864.69;;;22.20;52.86
46506;BME280;32220;49.808;9.968;2023-05-23T07:41:31;98875.16;;;22.23;52.13
46506;BME280;32220;49.808;9.968;2023-05-23T07:43:59;98869.25;;;22.03;51.81
46506;BME280;32220;49.808;9.968;2023-05-23T07:46:26;98886.09;;;22.13;51.39
46506;BME280;32220;49.808;9.968;2023-05-23T07:48:54;98883.06;;;22.08;51.22
46506;BME280;32220;49.808;9.968;2023-05-23T07:51:22;98871.44;;;22.08;51.53
46506;BME280;32220;49.808;9.968;2023-05-23T07:53:52;98883.59;;;22.20;51.49
46506;BME280;32220;49.808;9.968;2023-05-23T07:56:22;98884.41;;;22.29;51.36
46506;BME280;32220;49.808;9.968;2023-05-23T07:58:49;98895.38;;;22.27;50.43
46506;BME280;32220;49.808;9.968;2023-05-23T08:01:17;98884.25;;;22.14;50.21
46506;BME280;32220;49.808;9.968;2023-05-23T08:04:02;98878.69;;;21.99;50.88
46506;BME280;32220;49.808;9.968;2023-05-23T08:06:48;98883.91;;;22.01;50.80
46506;BME280;32220;49.808;9.968;2023-05-23T08:09:17;98886.91;;;21.98;51.65
46506;BME280;32220;49.808;9.968;2023-05-23T08:11:50;98882.88;;;22.02;52.02
46506;BME280;32220;49.808;9.968;2023-05-23T08:14:19;98879.38;;;22.09;52.10
46506;BME280;32220;49.808;9.968;2023-05-23T08:16:55;98891.16;;;22.16;52.07
46506;BME280;32220;49.808;9.968;2023-05-23T08:19:26;98875.81;;;22.17;52.22
46506;BME280;32220;49.808;9.968;2023-05-23T08:21:53;98884.25;;;22.30;51.44
46506;BME280;32220;49.808;9.968;2023-05-23T08:24:23;98897.06;;;22.36;51.17
46506;BME280;32220;49.808;9.968;2023-05-23T08:26:52;98893.38;;;22.37;50.95
46506;BME280;32220;49.808;9.968;2023-05-23T08:29:20;98893.34;;;22.53;51.19
46506;BME280;32220;49.808;9.968;2023-05-23T08:31:48;98909.84;;;22.83;50.53
46506;BME280;32220;49.808;9.968;2023-05-23T08:34:16;98912.00;;;23.82;48.74
46506;BME280;32220;49.808;9.968;2023-05-23T08:36:43;98920.38;;;26.02;45.67
46506;BME280;32220;49.808;9.968;2023-05-23T08:39:16;98944.47;;;28.47;40.60
46506;BME280;32220;49.808;9.968;2023-05-23T08:41:52;98965.03;;;29.99;37.27
46506;BME280;32220;49.808;9.968;2023-05-23T08:44:20;98967.53;;;30.39;36.70
46506;BME280;32220;49.808;9.968;2023-05-23T08:46:52;98964.69;;;29.70;36.66
46506;BME280;32220;49.808;9.968;2023-05-23T08:49:46;98965.84;;;29.49;37.71
46506;BME280;32220;49.808;9.968;2023-05-23T08:52:17;98960.16;;;29.50;37.71
46506;BME280;32220;49.808;9.968;2023-05-23T08:54:49;98960.50;;;29.74;38.16
46506;BME280;32220;49.808;9.968;2023-05-23T08:57:19;98956.28;;;29.78;36.88
46506;BME280;32220;49.808;9.968;2023-05-23T08:59:52;98955.50;;;29.64;37.31
46506;BME280;32220;49.808;9.968;2023-05-23T09:02:23;98968.34;;;29.37;36.95
46506;BME280;32220;49.808;9.968;2023-05-23T09:04:55;98972.63;;;28.80;37.36
46506;BME280;32220;49.808;9.968;2023-05-23T09:07:27;98960.16;;;28.18;37.56
46506;BME280;32220;49.808;9.968;2023-05-23T09:09:55;98951.16;;;27.64;38.33
46506;BME280;32220;49.808;9.968;2023-05-23T09:12:24;98963.72;;;27.30;39.32
46506;BME280;32220;49.808;9.968;2023-05-23T09:14:53;98947.59;;;26.94;39.62
46506;BME280;32220;49.808;9.968;2023-05-23T09:17:23;98946.44;;;26.61;40.02
46506;BME280;32220;49.808;9.968;2023-05-23T09:19:51;98939.84;;;26.48;41.22
46506;BME280;32220;49.808;9.968;2023-05-23T09:22:40;98931.47;;;26.71;41.89
46506;BME280;32220;49.808;9.968;2023-05-23T09:25:14;98943.66;;;27.03;40.32
46506;BME280;32220;49.808;9.968;2023-05-23T09:27:46;98925.75;;;27.15;39.47
46506;BME280;32220;49.808;9.968;2023-05-23T09:30:14;98960.72;;;27.18;39.14
46506;BME280;32220;49.808;9.968;2023-05-23T09:32:41;98957.03;;;26.77;39.54
46506;BME280;32220;49.808;9.968;2023-05-23T09:35:09;98949.00;;;26.26;40.44
46506;BME280;32220;49.808;9.968;2023-05-23T09:37:42;98942.31;;;25.86;41.68
46506;BME280;32220;49.808;9.968;2023-05-23T09:40:12;98942.38;;;25.57;42.14
46506;BME280;32220;49.808;9.968;2023-05-23T09:42:51;98928.94;;;25.19;42.55
46506;BME280;32220;49.808;9.968;2023-05-23T09:45:19;98939.03;;;24.96;42.71
46506;BME280;32220;49.808;9.968;2023-05-23T09:47:50;98944.44;;;24.73;43.49
46506;BME280;32220;49.808;9.968;2023-05-23T09:50:19;98935.34;;;24.51;44.23
46506;BME280;32220;49.808;9.968;2023-05-23T09:52:47;98935.25;;;24.45;44.09
46506;BME280;32220;49.808;9.968;2023-05-23T09:55:16;98938.41;;;24.48;44.85
46506;BME280;32220;49.808;9.968;2023-05-23T09:57:44;98925.84;;;24.55;45.22
46506;BME280;32220;49.808;9.968;2023-05-23T10:00:14;98941.94;;;24.72;44.28
46506;BME280;32220;49.808;9.968;2023-05-23T10:02:53;98949.22;;;24.86;43.95
46506;BME280;32220;49.808;9.968;2023-05-23T10:05:30;98946.81;;;24.91;43.95
46506;BME280;32220;49.808;9.968;2023-05-23T10:08:01;98949.34;;;24.92;44.27
46506;BME280;32220;49.808;9.968;2023-05-23T10:10:31;98948.28;;;24.79;43.91
46506;BME280;32220;49.808;9.968;2023-05-23T10:13:01;98940.31;;;24.62;44.73
46506;BME280;32220;49.808;9.968;2023-05-23T10:15:34;98936.63;;;24.41;45.46
46506;BME280;32220;49.808;9.968;2023-05-23T10:18:08;98944.50;;;24.27;46.10
46506;BME280;32220;49.808;9.968;2023-05-23T10:20:39;98948.88;;;24.06;45.66
46506;BME280;32220;49.808;9.968;2023-05-23T10:23:10;98940.59;;;23.99;45.73
46506;BME280;32220;49.808;9.968;2023-05-23T10:25:39;98936.69;;;24.02;46.20
46506;BME280;32220;49.808;9.968;2023-05-23T10:28:07;98941.34;;;24.16;45.78
46506;BME280;32220;49.808;9.968;2023-05-23T10:30:36;98941.25;;;24.32;46.08
46506;BME280;32220;49.808;9.968;2023-05-23T10:33:05;98928.69;;;24.39;46.06
46506;BME280;32220;49.808;9.968;2023-05-23T10:35:41;98953.28;;;24.52;44.85
46506;BME280;32220;49.808;9.968;2023-05-23T10:38:23;98940.53;;;24.38;44.86
46506;BME280;32220;49.808;9.968;2023-05-23T10:40:59;98949.06;;;24.27;45.15
46506;BME280;32220;49.808;9.968;2023-05-23T10:43:41;98933.16;;;24.01;45.20
46506;BME280;32220;49.808;9.968;2023-05-23T10:46:13;98930.38;;;23.86;46.10
46506;BME280;32220;49.808;9.968;2023-05-23T10:48:42;98952.38;;;23.83;46.09
46506;BME280;32220;49.808;9.968;2023-05-23T10:51:10;98947.22;;;23.74;46.37
46506;BME280;32220;49.808;9.968;2023-05-23T10:53:41;98939.63;;;23.69;47.45
46506;BME280;32220;49.808;9.968;2023-05-23T10:56:10;98939.47;;;23.62;47.72
46506;BME280;32220;49.808;9.968;2023-05-23T10:58:45;98935.97;;;23.54;47.69
46506;BME280;32220;49.808;9.968;2023-05-23T11:01:14;98955.84;;;23.69;47.43
46506;BME280;32220;49.808;9.968;2023-05-23T11:03:49;98952.75;;;23.80;47.71
46506;BME280;32220;49.808;9.968;2023-05-23T11:06:29;98954.44;;;23.81;46.95
46506;BME280;32220;49.808;9.968;2023-05-23T11:09:03;98936.06;;;23.69;47.68
46506;BME280;32220;49.808;9.968;2023-05-23T11:11:59;98948.25;;;23.64;47.37
46506;BME280;32220;49.808;9.968;2023-05-23T11:17:29;98953.66;;;23.64;47.35
46506;BME280;32220;49.808;9.968;2023-05-23T11:19:58;98951.72;;;23.81;47.60
46506;BME280;32220;49.808;9.968;2023-05-23T11:22:27;98954.59;;;24.11;47.58
46506;BME280;32220;49.808;9.968;2023-05-23T11:24:57;98958.44;;;24.39;47.11
46506;BME280;32220;49.808;9.968;2023-05-23T11:27:26;98970.22;;;24.69;45.60
46506;BME280;32220;49.808;9.968;2023-05-23T11:29:58;98967.03;;;25.03;45.70
46506;BME280;32220;49.808;9.968;2023-05-23T11:32:30;98975.88;;;25.34;45.80
46506;BME280;32220;49.808;9.968;2023-05-23T11:34:58;98966.59;;;25.44;45.14
46506;BME280;32220;49.808;9.968;2023-05-23T11:37:27;98968.47;;;25.28;44.95
46506;BME280;32220;49.808;9.968;2023-05-23T11:39:55;98937.47;;;24.79;44.60
46506;BME280;32220;49.808;9.968;2023-05-23T11:42:23;98971.84;;;24.78;45.10
46506;BME280;32220;49.808;9.968;2023-05-23T11:44:51;98968.31;;;24.55;46.03
46506;BME280;32220;49.808;9.968;2023-05-23T11:47:20;98971.63;;;24.42;46.74
46506;BME280;32220;49.808;9.968;2023-05-23T11:49:49;98961.94;;;24.25;46.77
46506;BME280;32220;49.808;9.968;2023-05-23T11:52:17;98957.53;;;24.24;47.61
46506;BME280;32220;49.808;9.968;2023-05-23T11:54:45;98957.91;;;24.21;47.22
46506;BME280;32220;49.808;9.968;2023-05-23T11:57:13;98954.94;;;24.08;46.75
46506;BME280;32220;49.808;9.968;2023-05-23T11:59:41;98970.44;;;24.14;46.95
46506;BME280;32220;49.808;9.968;2023-05-23T12:02:08;98970.84;;;24.11;47.22
46506;BME280;32220;49.808;9.968;2023-05-23T12:04:36;98970.16;;;24.09;46.75
46506;BME280;32220;49.808;9.968;2023-05-23T12:07:06;98969.00;;;24.03;46.83
46506;BME280;32220;49.808;9.968;2023-05-23T12:09:41;98969.06;;;23.95;47.33
46506;BME280;32220;49.808;9.968;2023-05-23T12:12:09;98964.22;;;23.82;47.38
46506;BME280;32220;49.808;9.968;2023-05-23T12:14:37;98967.94;;;23.81;47.57
46506;BME280;32220;49.808;9.968;2023-05-23T12:17:10;98970.75;;;23.96;47.79
46506;BME280;32220;49.808;9.968;2023-05-23T12:19:38;98974.16;;;24.13;47.91
46506;BME280;32220;49.808;9.968;2023-05-23T12:22:08;98914.94;;;23.95;48.08
46506;BME280;32220;49.808;9.968;2023-05-23T12:24:44;98970.56;;;24.28;47.61
46506;BME280;32220;49.808;9.968;2023-05-23T12:27:12;98963.63;;;24.26;47.58
46506;BME280;32220;49.808;9.968;2023-05-23T12:29:40;98951.56;;;24.06;47.14
46506;BME280;32220;49.808;9.968;2023-05-23T12:32:07;98980.66;;;24.04;46.40
46506;BME280;32220;49.808;9.968;2023-05-23T12:34:40;98963.91;;;23.77;46.81
46506;BME280;32220;49.808;9.968;2023-05-23T12:37:12;98981.19;;;23.68;46.96
46506;BME280;32220;49.808;9.968;2023-05-23T12:39:42;98980.91;;;23.55;47.40
46506;BME280;32220;49.808;9.968;2023-05-23T12:42:10;98969.78;;;23.42;48.03
46506;BME280;32220;49.808;9.968;2023-05-23T12:44:39;98967.28;;;23.32;48.35
46506;BME280;32220;49.808;9.968;2023-05-23T12:47:07;98966.09;;;23.26;48.66
46506;BME280;32220;49.808;9.968;2023-05-23T12:49:35;98975.25;;;23.17;48.57
46506;BME280;32220;49.808;9.968;2023-05-23T12:52:03;98975.44;;;23.16;48.60
46506;BME280;32220;49.808;9.968;2023-05-23T12:54:32;98973.25;;;23.19;49.10
46506;BME280;32220;49.808;9.968;2023-05-23T12:56:59;98954.66;;;23.16;48.37
46506;BME280;32220;49.808;9.968;2023-05-23T12:59:27;98963.25;;;23.28;48.72
46506;BME280;32220;49.808;9.968;2023-05-23T13:01:55;98975.69;;;23.53;48.26
46506;BME280;32220;49.808;9.968;2023-05-23T13:04:26;98926.03;;;23.38;47.77
46506;BME280;32220;49.808;9.968;2023-05-23T13:06:53;98970.31;;;23.84;47.61
46506;BME280;32220;49.808;9.968;2023-05-23T13:09:21;98989.44;;;24.06;47.13
46506;BME280;32220;49.808;9.968;2023-05-23T13:11:51;98978.88;;;24.19;47.02
46506;BME280;32220;49.808;9.968;2023-05-23T13:14:19;98952.91;;;24.10;47.22
46506;BME280;32220;49.808;9.968;2023-05-23T13:16:47;98988.38;;;24.15;47.32
46506;BME280;32220;49.808;9.968;2023-05-23T13:19:16;98966.31;;;23.72;50.25
46506;BME280;32220;49.808;9.968;2023-05-23T13:21:44;98961.41;;;23.12;51.68